createdAt,value
2023-03-11T00:02:30.969Z,17.23
2023-03-11T00:05:03.959Z,17.13
2023-03-11T00:07:43.060Z,17.22
2023-03-11T00:10:23.526Z,17.19
2023-03-11T00:12:56.629Z,17.18
2023-03-11T00:15:30.304Z,17.16
2023-03-11T00:18:03.652Z,17.15
2023-03-11T00:20:40.529Z,17.15
2023-03-11T00:23:15.473Z,17.10
2023-03-11T00:28:49.620Z,17.11
2023-03-11T00:31:22.814Z,17.35
2023-03-11T00:33:57.407Z,17.06
2023-03-11T00:36:34.012Z,16.98
2023-03-11T00:39:07.671Z,16.97
2023-03-11T00:41:40.270Z,16.94
2023-03-11T00:46:59.474Z,16.92
2023-03-11T00:49:38.496Z,16.88
2023-03-11T00:52:16.767Z,16.97
2023-03-11T00:54:49.312Z,16.95
2023-03-11T00:57:21.832Z,16.91
2023-03-11T00:59:54.754Z,16.92
2023-03-11T01:02:27.346Z,16.94
2023-03-11T01:05:10.801Z,16.94
2023-03-11T01:07:43.306Z,16.92
2023-03-11T01:10:17.407Z,16.89
2023-03-11T01:12:50.256Z,16.89
2023-03-11T01:15:37.069Z,16.76
2023-03-11T01:18:09.797Z,16.84
2023-03-11T01:20:54.558Z,16.77
2023-03-11T01:23:27.272Z,16.75
2023-03-11T01:26:06.220Z,16.83
2023-03-11T01:28:38.832Z,16.80
2023-03-11T01:31:11.779Z,16.79
2023-03-11T01:33:44.516Z,16.75
2023-03-11T01:36:31.065Z,16.71
2023-03-11T01:39:04.126Z,16.70
2023-03-11T01:41:48.846Z,16.69
2023-03-11T01:44:22.127Z,16.72
2023-03-11T01:47:04.053Z,16.72
2023-03-11T01:49:41.892Z,16.60
2023-03-11T01:52:21.449Z,16.57
2023-03-11T01:54:54.204Z,16.65
2023-03-11T02:00:34.811Z,16.55
2023-03-11T02:03:24.150Z,16.62
2023-03-11T02:06:01.199Z,16.60
2023-03-11T02:08:34.620Z,16.60
2023-03-11T02:11:12.337Z,16.52
2023-03-11T02:13:55.858Z,16.59
2023-03-11T02:16:28.760Z,16.59
2023-03-11T02:19:49.761Z,16.58
2023-03-11T02:22:23.369Z,16.54
2023-03-11T02:25:12.049Z,16.58
2023-03-11T02:27:51.383Z,16.44
2023-03-11T02:30:27.312Z,16.51
2023-03-11T02:33:10.846Z,16.50
2023-03-11T02:35:43.642Z,16.48
2023-03-11T02:38:25.813Z,16.47
2023-03-11T02:41:01.721Z,16.41
2023-03-11T02:43:45.168Z,16.41
2023-03-11T02:46:19.872Z,16.41
2023-03-11T02:48:54.369Z,16.35
2023-03-11T02:51:26.995Z,16.24
2023-03-11T02:54:16.390Z,16.36
2023-03-11T02:56:48.996Z,16.33
2023-03-11T02:59:32.778Z,16.33
2023-03-11T03:02:05.842Z,16.35
2023-03-11T03:04:44.529Z,16.32
2023-03-11T03:07:17.279Z,16.28
2023-03-11T03:10:02.583Z,16.28
2023-03-11T03:12:35.316Z,16.16
2023-03-11T03:15:17.142Z,16.31
2023-03-11T03:17:51.533Z,16.18
2023-03-11T03:20:38.893Z,16.24
2023-03-11T03:23:11.487Z,16.21
2023-03-11T03:25:53.445Z,16.15
2023-03-11T03:28:25.996Z,16.21
2023-03-11T03:31:10.424Z,16.23
2023-03-11T03:33:43.064Z,16.19
2023-03-11T03:36:16.316Z,16.20
2023-03-11T03:38:48.919Z,16.17
2023-03-11T03:41:21.882Z,16.18
2023-03-11T03:43:55.013Z,16.15
2023-03-11T03:46:27.561Z,16.17
2023-03-11T03:49:00.283Z,16.13
2023-03-11T03:51:34.639Z,16.12
2023-03-11T03:54:07.298Z,16.14
2023-03-11T03:56:39.896Z,15.98
2023-03-11T03:59:13.414Z,16.04
2023-03-11T04:01:45.936Z,16.13
2023-03-11T04:04:18.712Z,16.10
2023-03-11T04:06:51.332Z,16.09
2023-03-11T04:09:24.406Z,16.10
2023-03-11T04:11:57.096Z,16.07
2023-03-11T04:14:29.849Z,16.01
2023-03-11T04:17:02.400Z,16.02
2023-03-11T04:19:35.000Z,16.05
2023-03-11T04:22:07.813Z,16.02
2023-03-11T04:24:40.354Z,16.01
2023-03-11T04:27:13.125Z,16.02
2023-03-11T04:29:45.680Z,16.01
2023-03-11T04:32:18.528Z,15.94
2023-03-11T04:34:51.182Z,16.00
2023-03-11T04:37:28.780Z,15.98
2023-03-11T04:40:01.377Z,15.98
2023-03-11T04:42:37.166Z,15.81
2023-03-11T04:45:11.197Z,15.95
2023-03-11T04:47:43.967Z,15.96
2023-03-11T04:50:18.516Z,15.91
2023-03-11T04:52:51.261Z,15.93
2023-03-11T04:58:20.860Z,15.92
2023-03-11T05:00:54.235Z,15.89
2023-03-11T05:03:26.926Z,15.92
2023-03-11T05:06:00.414Z,15.86
2023-03-11T05:08:33.252Z,15.82
2023-03-11T05:11:05.808Z,15.73
2023-03-11T05:13:44.356Z,15.85
2023-03-11T05:16:17.175Z,15.85
2023-03-11T05:18:49.734Z,15.85
2023-03-11T05:21:23.012Z,15.79
2023-03-11T05:23:55.643Z,15.78
2023-03-11T05:26:28.255Z,15.79
2023-03-11T05:29:00.813Z,15.77
2023-03-11T05:31:33.944Z,15.78
2023-03-11T05:34:17.122Z,15.69
2023-03-11T05:36:49.722Z,15.78
2023-03-11T05:39:29.690Z,15.77
2023-03-11T05:42:02.300Z,15.66
2023-03-11T05:44:35.107Z,15.75
2023-03-11T05:47:07.717Z,15.74
2023-03-11T05:50:02.860Z,15.75
2023-03-11T05:52:34.030Z,15.62
2023-03-11T05:55:15.781Z,15.68
2023-03-11T05:57:52.532Z,15.78
2023-03-11T06:00:31.821Z,15.83
2023-03-11T06:03:04.346Z,15.77
2023-03-11T06:05:37.033Z,15.83
2023-03-11T06:08:09.580Z,15.94
2023-03-11T06:10:43.166Z,15.97
2023-03-11T06:13:15.976Z,16.01
2023-03-11T06:15:48.491Z,16.11
2023-03-11T06:18:21.377Z,16.15
2023-03-11T06:20:58.347Z,16.19
2023-03-11T06:23:31.461Z,16.18
2023-03-11T06:26:06.161Z,16.33
2023-03-11T06:28:38.690Z,16.36
2023-03-11T06:31:17.057Z,16.48
2023-03-11T06:33:49.827Z,16.56
2023-03-11T06:36:24.076Z,16.59
2023-03-11T06:39:09.782Z,16.87
2023-03-11T06:41:42.974Z,16.78
2023-03-11T06:44:15.585Z,16.86
2023-03-11T06:46:48.342Z,16.89
2023-03-11T06:49:43.188Z,16.98
2023-03-11T06:52:14.159Z,17.05
2023-03-11T06:54:56.061Z,17.10
2023-03-11T06:57:29.494Z,17.20
2023-03-11T07:00:02.268Z,17.28
2023-03-11T07:02:34.811Z,17.33
2023-03-11T07:05:18.007Z,17.38
2023-03-11T07:07:55.449Z,17.24
2023-03-11T07:10:33.363Z,17.48
2023-03-11T07:13:06.120Z,17.54
2023-03-11T07:16:00.317Z,17.59
2023-03-11T07:18:42.788Z,17.64
2023-03-11T07:21:20.028Z,17.66
2023-03-11T07:24:00.170Z,17.71
2023-03-11T07:26:35.412Z,17.70
2023-03-11T07:29:08.700Z,17.76
2023-03-11T07:31:41.572Z,17.79
2023-03-11T07:34:14.271Z,17.83
2023-03-11T07:36:47.007Z,17.82
2023-03-11T07:39:20.198Z,17.83
2023-03-11T07:42:01.830Z,17.79
2023-03-11T07:44:34.359Z,17.88
2023-03-11T07:47:14.141Z,17.89
2023-03-11T07:49:47.007Z,17.91
2023-03-11T07:52:22.896Z,17.85
2023-03-11T07:54:55.446Z,17.83
2023-03-11T07:57:37.285Z,17.81
2023-03-11T08:00:12.511Z,17.95
2023-03-11T08:02:54.493Z,17.91
2023-03-11T08:05:27.238Z,17.77
2023-03-11T08:08:06.145Z,17.81
2023-03-11T08:13:26.238Z,17.98
2023-03-11T08:16:18.457Z,17.94
2023-03-11T08:19:08.086Z,17.99
2023-03-11T08:21:40.850Z,17.90
2023-03-11T08:24:19.584Z,17.95
2023-03-11T08:26:52.167Z,17.92
2023-03-11T08:29:25.270Z,17.98
2023-03-11T08:31:57.843Z,18.00
2023-03-11T08:34:30.482Z,17.92
2023-03-11T08:37:09.146Z,17.87
2023-03-11T08:39:56.199Z,17.97
2023-03-11T08:42:37.717Z,17.94
2023-03-11T08:45:11.334Z,18.02
2023-03-11T08:47:59.028Z,17.96
2023-03-11T08:50:34.932Z,17.91
2023-03-11T08:53:11.429Z,17.91
2023-03-11T08:55:59.321Z,17.96
2023-03-11T08:58:57.009Z,18.11
2023-03-11T09:01:42.577Z,17.87
2023-03-11T09:04:15.222Z,17.90
2023-03-11T09:06:50.915Z,17.94
2023-03-11T09:09:32.518Z,17.95
2023-03-11T09:12:05.337Z,17.88
2023-03-11T09:14:39.605Z,17.89
2023-03-11T09:17:12.509Z,17.91
2023-03-11T09:19:48.916Z,17.86
2023-03-11T09:25:11.942Z,18.00
2023-03-11T09:27:56.782Z,17.97
2023-03-11T09:30:41.478Z,17.99
2023-03-11T09:33:32.174Z,18.04
2023-03-11T09:36:21.279Z,18.07
2023-03-11T09:39:04.014Z,18.11
2023-03-11T09:42:01.357Z,18.15
2023-03-11T09:45:02.560Z,18.29
2023-03-11T09:48:26.811Z,18.36
2023-03-11T09:51:41.029Z,18.32
2023-03-11T09:54:23.241Z,18.38
2023-03-11T09:57:17.887Z,18.40
2023-03-11T10:00:57.169Z,18.52
2023-03-11T10:03:50.043Z,18.37
2023-03-11T10:09:40.738Z,18.44
2023-03-11T10:16:09.946Z,18.42
2023-03-11T10:19:21.381Z,18.40
2023-03-11T10:22:56.709Z,18.37
2023-03-11T10:26:17.887Z,18.39
2023-03-11T10:29:39.737Z,18.43
2023-03-11T10:33:03.354Z,18.48
2023-03-11T10:35:44.902Z,18.29
2023-03-11T10:38:33.314Z,18.33
2023-03-11T10:41:54.576Z,18.32
2023-03-11T10:44:40.164Z,18.23
2023-03-11T10:47:23.163Z,18.32
2023-03-11T10:50:19.475Z,18.26
2023-03-11T10:54:04.537Z,18.49
2023-03-11T10:57:15.335Z,18.46
2023-03-11T11:00:22.170Z,18.29
2023-03-11T11:03:39.793Z,18.28
2023-03-11T11:06:37.872Z,18.52
2023-03-11T11:09:20.329Z,18.36
2023-03-11T11:12:28.058Z,18.40
2023-03-11T11:15:30.674Z,18.53
2023-03-11T11:19:11.918Z,18.57
2023-03-11T11:21:54.016Z,18.30
2023-03-11T11:24:56.853Z,18.42
2023-03-11T11:27:33.237Z,18.53
2023-03-11T11:30:08.995Z,18.53
2023-03-11T11:33:43.609Z,18.64
2023-03-11T11:36:36.033Z,18.57
2023-03-11T11:39:21.281Z,18.48
2023-03-11T11:42:02.132Z,18.50
2023-03-11T11:44:35.465Z,18.55
2023-03-11T11:47:39.427Z,18.52
2023-03-11T11:53:30.382Z,18.51
2023-03-11T11:56:03.843Z,18.52
2023-03-11T11:58:48.554Z,18.51
2023-03-11T12:02:02.578Z,18.52
2023-03-11T12:05:08.912Z,18.68
2023-03-11T12:11:34.861Z,18.59
2023-03-11T12:14:53.166Z,18.80
2023-03-11T12:17:47.557Z,18.63
2023-03-11T12:20:49.918Z,18.71
2023-03-11T12:24:11.239Z,18.71
2023-03-11T12:26:49.686Z,18.72
2023-03-11T12:29:56.441Z,18.72
2023-03-11T12:32:44.285Z,18.65
2023-03-11T12:35:30.228Z,18.77
2023-03-11T12:38:40.106Z,18.82
2023-03-11T12:41:33.552Z,18.78
2023-03-11T12:44:46.516Z,18.95
2023-03-11T12:47:37.160Z,18.76
2023-03-11T12:51:02.011Z,18.90
2023-03-11T12:53:49.669Z,18.73
2023-03-11T12:56:56.448Z,18.72
2023-03-11T13:00:18.006Z,18.92
2023-03-11T13:03:08.583Z,18.90
2023-03-11T13:06:52.570Z,18.88
2023-03-11T13:09:31.692Z,18.78
2023-03-11T13:12:48.843Z,18.89
2023-03-11T13:15:21.348Z,18.91
2023-03-11T13:18:01.784Z,18.93
2023-03-11T13:20:48.502Z,18.94
2023-03-11T13:23:34.867Z,18.86
2023-03-11T13:26:39.531Z,18.96
2023-03-11T13:30:03.995Z,19.07
2023-03-11T13:32:48.307Z,18.88
2023-03-11T13:35:52.607Z,18.91
2023-03-11T13:39:31.308Z,19.12
2023-03-11T13:42:45.780Z,18.95
2023-03-11T13:46:53.942Z,19.19
2023-03-11T13:50:23.485Z,19.21
2023-03-11T13:53:09.786Z,18.92
2023-03-11T13:55:51.899Z,18.98
2023-03-11T13:58:33.217Z,19.06
2023-03-11T14:01:20.913Z,19.05
2023-03-11T14:03:53.707Z,19.04
2023-03-11T14:06:41.433Z,19.01
2023-03-11T14:09:23.947Z,19.08
2023-03-11T14:12:19.587Z,18.95
2023-03-11T14:15:07.165Z,19.13
2023-03-11T14:17:40.018Z,19.11
2023-03-11T14:20:17.468Z,19.20
2023-03-11T14:22:56.842Z,19.14
2023-03-11T14:25:44.987Z,19.08
2023-03-11T14:28:36.721Z,19.27
2023-03-11T14:31:29.472Z,19.20
2023-03-11T14:34:12.845Z,19.26
2023-03-11T14:36:59.774Z,19.22
2023-03-11T14:39:39.132Z,19.28
2023-03-11T14:42:41.546Z,19.38
2023-03-11T14:45:21.455Z,19.29
2023-03-11T14:51:49.650Z,19.27
2023-03-11T14:54:46.834Z,19.17
2023-03-11T14:57:46.343Z,19.45
2023-03-11T15:01:39.692Z,19.48
2023-03-11T15:04:44.303Z,19.27
2023-03-11T15:07:20.565Z,19.37
2023-03-11T15:09:55.986Z,19.33
2023-03-11T15:13:26.160Z,19.51
2023-03-11T15:16:37.471Z,19.41
2023-03-11T15:19:28.281Z,19.53
2023-03-11T15:23:07.125Z,19.34
2023-03-11T15:25:50.625Z,19.42
2023-03-11T15:28:46.321Z,19.44
2023-03-11T15:31:21.571Z,19.43
2023-03-11T15:34:18.161Z,19.52
2023-03-11T15:37:26.644Z,19.29
2023-03-11T15:40:35.336Z,19.53
2023-03-11T15:43:33.945Z,19.52
2023-03-11T15:46:11.218Z,19.31
2023-03-11T15:48:50.058Z,19.25
2023-03-11T15:51:22.873Z,19.25
2023-03-11T15:54:07.220Z,19.42
2023-03-11T15:56:48.881Z,19.70
2023-03-11T15:59:22.584Z,19.37
2023-03-11T16:01:55.991Z,19.33
2023-03-11T16:04:34.967Z,19.40
2023-03-11T16:07:08.742Z,19.30
2023-03-11T16:09:59.583Z,19.46
2023-03-11T16:12:42.624Z,19.38
2023-03-11T16:15:37.972Z,19.40
2023-03-11T16:18:11.060Z,19.35
2023-03-11T16:20:58.714Z,19.35
2023-03-11T16:23:51.866Z,19.33
2023-03-11T16:26:24.906Z,19.33
2023-03-11T16:29:16.518Z,19.28
2023-03-11T16:31:51.608Z,19.40
2023-03-11T16:34:24.456Z,19.41
2023-03-11T16:36:58.302Z,19.22
2023-03-11T16:39:33.518Z,19.39
2023-03-11T16:42:09.088Z,19.30
2023-03-11T16:44:41.722Z,19.34
2023-03-11T16:47:14.338Z,19.27
2023-03-11T16:50:02.520Z,19.32
2023-03-11T16:52:47.897Z,19.29
2023-03-11T16:55:20.745Z,19.34
2023-03-11T16:57:54.749Z,19.33
2023-03-11T17:03:17.241Z,19.34
2023-03-11T17:05:50.920Z,19.30
2023-03-11T17:08:35.159Z,19.19
2023-03-11T17:11:21.804Z,19.23
2023-03-11T17:14:16.394Z,19.20
2023-03-11T17:16:52.684Z,19.09
2023-03-11T17:19:26.248Z,19.25
2023-03-11T17:22:01.494Z,19.11
2023-03-11T17:24:34.388Z,19.10
2023-03-11T17:27:17.180Z,19.13
2023-03-11T17:29:55.074Z,19.09
2023-03-11T17:32:29.445Z,19.18
2023-03-11T17:35:08.725Z,18.99
2023-03-11T17:37:41.308Z,19.08
2023-03-11T17:40:13.977Z,19.09
2023-03-11T17:42:52.700Z,19.10
2023-03-11T17:45:31.630Z,19.03
2023-03-11T17:48:11.240Z,19.12
2023-03-11T17:50:46.199Z,19.11
2023-03-11T17:53:21.113Z,18.99
2023-03-11T17:55:59.164Z,19.01
2023-03-11T17:58:41.137Z,18.96
2023-03-11T18:01:20.908Z,18.98
2023-03-11T18:03:55.082Z,18.83
2023-03-11T18:06:36.891Z,18.89
2023-03-11T18:09:09.745Z,18.88
2023-03-11T18:11:51.348Z,18.82
2023-03-11T18:14:24.041Z,18.82
2023-03-11T18:17:23.514Z,19.10
2023-03-11T18:20:05.818Z,18.98
2023-03-11T18:22:40.129Z,18.94
2023-03-11T18:25:14.916Z,18.93
2023-03-11T18:27:47.648Z,18.90
2023-03-11T18:30:20.411Z,18.83
2023-03-11T18:32:56.982Z,18.90
2023-03-11T18:38:36.894Z,18.72
2023-03-11T18:41:27.325Z,18.86
2023-03-11T18:44:01.325Z,18.67
2023-03-11T18:46:37.185Z,18.79
2023-03-11T18:51:59.855Z,18.64
2023-03-11T18:54:32.412Z,18.70
2023-03-11T18:57:07.947Z,18.62
2023-03-11T18:59:52.866Z,18.69
2023-03-11T19:02:26.313Z,18.67
2023-03-11T19:05:11.478Z,18.72
2023-03-11T19:07:49.494Z,18.62
2023-03-11T19:10:22.281Z,18.53
2023-03-11T19:12:54.933Z,18.51
2023-03-11T19:15:27.523Z,18.55
2023-03-11T19:18:07.067Z,18.49
2023-03-11T19:20:40.431Z,18.50
2023-03-11T19:23:13.145Z,18.49
2023-03-11T19:26:00.622Z,18.44
2023-03-11T19:28:36.131Z,18.43
2023-03-11T19:31:08.710Z,18.39
2023-03-11T19:33:45.579Z,18.38
2023-03-11T19:36:18.752Z,18.36
2023-03-11T19:38:51.382Z,18.35
2023-03-11T19:41:23.892Z,18.29
2023-03-11T19:43:56.623Z,18.28
2023-03-11T19:46:37.109Z,18.26
2023-03-11T19:49:09.665Z,18.17
2023-03-11T19:51:56.017Z,18.13
2023-03-11T19:54:29.043Z,18.10
2023-03-11T19:57:02.037Z,18.06
2023-03-11T19:59:34.886Z,18.14
2023-03-11T20:02:11.882Z,18.11
2023-03-11T20:04:44.513Z,18.11
2023-03-11T20:07:27.821Z,18.08
2023-03-11T20:10:00.528Z,17.94
2023-03-11T20:12:36.178Z,17.97
2023-03-11T20:15:09.773Z,17.89
2023-03-11T20:17:54.320Z,17.91
2023-03-11T20:20:31.167Z,17.96
2023-03-11T20:23:10.002Z,17.84
2023-03-11T20:25:42.617Z,17.94
2023-03-11T20:28:27.203Z,17.84
2023-03-11T20:30:59.888Z,17.91
2023-03-11T20:33:58.096Z,18.01
2023-03-11T20:36:33.234Z,17.87
2023-03-11T20:39:09.989Z,17.67
2023-03-11T20:42:01.174Z,17.74
2023-03-11T20:44:53.741Z,17.82
2023-03-11T20:47:26.375Z,17.80
2023-03-11T20:50:02.019Z,17.77
2023-03-11T20:52:35.984Z,17.76
2023-03-11T20:55:18.968Z,17.75
2023-03-11T20:57:53.952Z,17.56
2023-03-11T21:00:35.430Z,17.71
2023-03-11T21:03:08.331Z,17.63
2023-03-11T21:05:53.066Z,17.65
2023-03-11T21:08:25.738Z,17.48
2023-03-11T21:11:02.708Z,17.64
2023-03-11T21:13:35.939Z,17.55
2023-03-11T21:16:23.262Z,17.62
2023-03-11T21:18:56.658Z,17.55
2023-03-11T21:21:41.237Z,17.56
2023-03-11T21:24:14.538Z,17.45
2023-03-11T21:26:48.889Z,17.55
2023-03-11T21:29:21.577Z,17.57
2023-03-11T21:31:54.417Z,17.55
2023-03-11T21:34:27.127Z,17.58
2023-03-11T21:36:59.848Z,17.58
2023-03-11T21:39:44.683Z,17.49
2023-03-11T21:42:17.683Z,17.66
2023-03-11T21:45:00.452Z,17.68
2023-03-11T21:47:33.114Z,17.71
2023-03-11T21:50:10.328Z,17.78
2023-03-11T21:52:43.003Z,17.81
2023-03-11T21:55:15.814Z,17.76
2023-03-11T21:57:48.500Z,17.73
2023-03-11T22:00:29.671Z,17.94
2023-03-11T22:03:02.535Z,17.96
2023-03-11T22:08:22.016Z,18.05
2023-03-11T22:11:03.949Z,18.07
2023-03-11T22:13:36.580Z,18.06
2023-03-11T22:16:21.917Z,18.12
2023-03-11T22:18:54.693Z,18.18
2023-03-11T22:21:35.778Z,18.03
2023-03-11T22:24:08.655Z,18.21
2023-03-11T22:26:41.326Z,18.24
2023-03-11T22:29:14.015Z,18.14
2023-03-11T22:31:46.779Z,18.24
2023-03-11T22:34:19.591Z,18.25
2023-03-11T22:36:52.298Z,18.11
2023-03-11T22:39:25.193Z,18.14
2023-03-11T22:41:57.687Z,18.25
2023-03-11T22:44:30.397Z,18.09
2023-03-11T22:47:03.352Z,18.24
2023-03-11T22:49:42.808Z,18.03
2023-03-11T22:52:16.101Z,18.15
2023-03-11T22:54:48.913Z,18.20
2023-03-11T22:57:21.510Z,18.16
2023-03-11T22:59:53.983Z,18.09
2023-03-11T23:02:32.544Z,18.12
2023-03-11T23:05:05.913Z,18.17
2023-03-11T23:07:48.436Z,18.12
2023-03-11T23:10:44.478Z,18.12
2023-03-11T23:13:22.963Z,18.03
2023-03-11T23:16:08.486Z,17.99
2023-03-11T23:18:55.787Z,18.06
2023-03-11T23:21:47.027Z,17.97
2023-03-11T23:24:23.685Z,17.95
2023-03-11T23:27:05.852Z,17.94
2023-03-11T23:29:38.844Z,17.97
2023-03-11T23:32:12.587Z,17.86
2023-03-11T23:34:48.095Z,17.89
2023-03-11T23:37:20.889Z,17.85
2023-03-11T23:40:07.538Z,17.80
2023-03-11T23:42:55.467Z,17.91
2023-03-11T23:45:28.005Z,17.87
2023-03-11T23:48:12.790Z,17.88
2023-03-11T23:50:58.090Z,17.94
2023-03-11T23:53:45.975Z,17.88
2023-03-11T23:56:38.773Z,17.95
2023-03-11T23:59:14.578Z,17.81
